Plum Branch, SC

12:20 AM EST on February 07, 2016 (GMT -0500)
Plum Trial | | Change Station
CLOSE
Current Station
Personal Weather Station
Location: Plum Branch, SC
Elevation: 489 ft
Nearby Weather Stations

Elev 489 ft 33.85 °N, 82.26 °W | Updated 6 seconds ago

Mostly Cloudy
Mostly Cloudy
43.5 °F
Feels Like 44 °F
N
0.0
Wind Variable Wind from NNW
Gusts 1.3 mph

Today
High -- | Low -- °F
--% Chance of Precip.
Yesterday
High -- | Low -- °F
Precip. -- in
Pressure 30.20 in
Visibility 10.0 miles
Clouds Scattered Clouds 7500 ft
Windchill 44 °F
Dew Point 30 °F
Humidity 58%
Rainfall 0.00 in
Snow Depth Not available.
7:21 AM 6:05 PM
Waning Crescent, 3% visible
METAR KHQU 070455Z AUTO 00000KT 10SM SCT075 06/01 A3020 RMK AO1 T00630014
Pressure 30.20 in
Visibility 10.0 miles
Clouds Scattered Clouds 7500 ft
Windchill 44 °F
Dew Point 30 °F
Humidity 58%
Rainfall 0.00 in
Snow Depth Not available.
7:21 AM 6:05 PM
Waning Crescent, 3% visible
METAR KHQU 070455Z AUTO 00000KT 10SM SCT075 06/01 A3020 RMK AO1 T00630014

10-Day Weather Forecast

Almanac

Astronomy

Feb. 07, 2016 Rise Set
Actual Time
Civil Twilight
Nautical Twilight
Astronomical Twilight
Moon
Length of Visible Light
Length of Day
Tomorrow will be .
, % of the Moon is Illuminated

Today's Extremes

State Highs State Lows

Community

WunderPhotos

Upload Photos

1,891,162 photos uploaded!

WunderBlog® & News

Nearby

Air Quality

  Air Quality AQ Index Pollutant
Not available.

Snow Depth

Station Depth Elevation

Earthquake Activity

City Distance Mag. Time & Date
Minimum magnitude displayed is 2.5.

Coastal Water Temperatures

Place Temperature

Stations

Nearby Weather Stations

Station Location Temp. Windchill Dew Point Humidity Wind Precip. Elev Updated Type
                   

Watches & Warnings

There are currently no watches in effect.